Time;durP1;ratioP1;P1;durP2;ratioP2;P2;SDS_P1;SDS_P2;PMS_P1;PMS_P2;Temp;Humidity;BMP_temperature;BMP_pressure;BME280_temperature;BME280_humidity;BME280_pressure;Samples;Min_cycle;Max_cycle;Signal;HPM_P1;HPM_P2
2023/09/12 00:01:21;;;;;;;5.80;5.40;;;25.80;99.90;;;;;;5014000;28;20459;-49
2023/09/12 00:03:48;;;;;;;6.40;5.90;;;25.80;99.90;;;;;;5014188;28;20989;-52
2023/09/12 00:06:14;;;;;;;6.53;5.90;;;25.80;99.90;;;;;;5013355;28;20457;-59
2023/09/12 00:08:41;;;;;;;6.20;5.70;;;25.80;99.90;;;;;;5008206;28;20467;-54
2023/09/12 00:11:10;;;;;;;5.87;5.47;;;25.80;99.90;;;;;;5005296;28;20478;-53
2023/09/12 00:13:39;;;;;;;6.80;6.20;;;25.80;99.90;;;;;;5009049;28;20864;-51
2023/09/12 00:16:06;;;;;;;7.03;6.40;;;25.80;99.90;;;;;;5013651;28;20455;-53
2023/09/12 00:18:34;;;;;;;5.97;5.57;;;25.70;99.90;;;;;;5014454;28;20489;-60
2023/09/12 00:21:01;;;;;;;7.13;6.03;;;25.80;99.90;;;;;;5012483;28;20822;-48
2023/09/12 00:23:28;;;;;;;5.80;5.30;;;25.70;99.90;;;;;;5011152;28;20474;-51
2023/09/12 00:25:55;;;;;;;6.17;5.63;;;25.70;99.90;;;;;;5010530;28;20682;-56
2023/09/12 00:28:22;;;;;;;6.33;5.73;;;25.80;99.90;;;;;;5010497;28;20463;-59
2023/09/12 00:30:50;;;;;;;6.83;6.30;;;25.70;99.90;;;;;;5012900;28;20963;-50
2023/09/12 00:33:17;;;;;;;5.57;5.07;;;25.70;99.90;;;;;;5011912;28;20470;-53
2023/09/12 00:35:44;;;;;;;5.50;5.20;;;25.80;99.90;;;;;;5008122;28;20482;-56
2023/09/12 00:38:11;;;;;;;6.20;5.70;;;25.70;99.90;;;;;;5012869;28;20571;-52
2023/09/12 00:40:38;;;;;;;5.63;5.23;;;25.70;99.90;;;;;;5007220;28;20473;-55
2023/09/12 00:43:05;;;;;;;5.90;5.40;;;25.70;99.90;;;;;;5015184;28;20458;-61
2023/09/12 00:45:31;;;;;;;6.40;5.90;;;25.70;99.90;;;;;;5012046;28;21133;-51
2023/09/12 00:48:00;;;;;;;6.20;5.77;;;25.70;99.90;;;;;;5006321;28;20463;-49
2023/09/12 00:50:27;;;;;;;5.73;5.33;;;25.70;99.90;;;;;;5010528;28;20686;-54
2023/09/12 00:52:55;;;;;;;7.27;6.67;;;25.70;99.90;;;;;;5014121;28;20954;-56
2023/09/12 00:55:22;;;;;;;6.30;5.80;;;25.70;99.90;;;;;;5007154;28;20469;-49
2023/09/12 00:57:50;;;;;;;6.67;5.90;;;25.70;99.90;;;;;;5013213;28;20485;-49
2023/09/12 01:00:17;;;;;;;7.10;6.50;;;25.70;99.90;;;;;;5019901;28;20561;-51
2023/09/12 01:02:46;;;;;;;6.30;5.90;;;25.70;99.90;;;;;;5016465;28;20478;-50
2023/09/12 01:05:15;;;;;;;6.63;6.10;;;25.70;99.90;;;;;;5010831;28;20452;-50
2023/09/12 01:07:44;;;;;;;6.43;5.93;;;25.70;99.90;;;;;;5012993;28;20459;-50
2023/09/12 01:10:11;;;;;;;5.90;5.30;;;25.70;99.90;;;;;;5016849;28;20826;-51
2023/09/12 01:12:38;;;;;;;6.20;5.77;;;25.70;99.90;;;;;;5005357;28;20463;-53
2023/09/12 01:15:13;;;;;;;6.00;5.60;;;25.70;99.90;;;;;;5005555;28;20481;-48
2023/09/12 01:17:40;;;;;;;8.37;6.00;;;25.70;99.90;;;;;;5013536;28;20474;-48
2023/09/12 01:20:11;;;;;;;6.20;5.70;;;25.70;99.90;;;;;;5007864;28;20474;-50
2023/09/12 01:23:08;;;;;;;5.70;5.13;;;25.70;99.90;;;;;;5006431;28;20461;-50
2023/09/12 01:26:11;;;;;;;5.77;5.37;;;25.70;99.90;;;;;;5011424;28;20450;-51
2023/09/12 01:28:42;;;;;;;6.03;5.50;;;25.70;99.90;;;;;;5010777;28;20473;-56
2023/09/12 01:31:10;;;;;;;6.50;6.00;;;25.70;99.90;;;;;;5011799;28;20784;-48
2023/09/12 01:33:36;;;;;;;6.50;5.90;;;25.70;99.90;;;;;;5010026;28;21263;-47
2023/09/12 01:36:03;;;;;;;6.00;5.50;;;25.70;99.90;;;;;;5008097;28;20458;-48
2023/09/12 01:38:30;;;;;;;6.67;5.97;;;25.70;99.90;;;;;;5011655;28;20493;-53
2023/09/12 01:40:57;;;;;;;6.00;5.60;;;25.70;99.90;;;;;;5010904;28;20470;-47
2023/09/12 01:43:27;;;;;;;6.10;5.60;;;25.70;99.90;;;;;;5010269;28;20455;-51
2023/09/12 01:45:57;;;;;;;6.43;5.93;;;25.70;99.90;;;;;;5007387;28;20816;-53
2023/09/12 01:48:30;;;;;;;5.73;5.33;;;25.70;99.90;;;;;;5012228;28;20976;-59
2023/09/12 01:50:57;;;;;;;5.80;5.30;;;25.70;99.90;;;;;;5015630;28;20543;-57
2023/09/12 01:53:24;;;;;;;6.10;5.60;;;25.70;99.90;;;;;;5008570;28;20463;-57
2023/09/12 01:55:51;;;;;;;6.00;5.53;;;25.70;99.90;;;;;;5004583;28;20469;-57
2023/09/12 01:58:18;;;;;;;6.53;6.03;;;25.70;99.90;;;;;;5004129;28;20825;-57
2023/09/12 02:00:45;;;;;;;7.00;6.33;;;25.60;99.90;;;;;;5004301;28;20486;-56
2023/09/12 02:03:13;;;;;;;6.63;6.00;;;25.60;99.90;;;;;;5002310;28;20481;-56
2023/09/12 02:05:40;;;;;;;6.70;6.10;;;25.60;99.90;;;;;;5002698;28;20455;-58
2023/09/12 02:08:07;;;;;;;6.33;5.83;;;25.60;99.90;;;;;;5002839;28;20985;-51
2023/09/12 02:10:33;;;;;;;6.07;5.63;;;25.60;99.90;;;;;;5005227;28;20466;-58
2023/09/12 02:13:00;;;;;;;5.57;5.10;;;25.60;99.90;;;;;;5005079;28;20489;-59
2023/09/12 02:15:27;;;;;;;6.23;5.73;;;25.60;99.90;;;;;;5003018;28;20470;-51
2023/09/12 02:17:53;;;;;;;6.27;5.67;;;25.60;99.90;;;;;;5003642;28;20470;-52
2023/09/12 02:20:22;;;;;;;6.10;5.60;;;25.60;99.90;;;;;;5004509;28;20973;-53
2023/09/12 02:22:48;;;;;;;7.47;5.73;;;25.60;99.90;;;;;;5005547;28;20491;-59
2023/09/12 02:25:15;;;;;;;6.50;5.90;;;25.60;99.90;;;;;;5004999;28;20493;-52
2023/09/12 02:27:42;;;;;;;6.20;5.70;;;25.60;99.90;;;;;;5004434;28;20518;-49
2023/09/12 02:30:09;;;;;;;6.63;6.10;;;25.60;99.90;;;;;;5002127;28;20466;-54
2023/09/12 02:32:36;;;;;;;6.77;6.07;;;25.60;99.90;;;;;;5004558;28;20975;-51
2023/09/12 02:35:03;;;;;;;6.73;6.03;;;25.60;99.90;;;;;;5002978;28;21018;-54
2023/09/12 02:37:31;;;;;;;5.50;5.00;;;25.60;99.90;;;;;;5011891;28;20467;-49
2023/09/12 02:39:58;;;;;;;6.37;5.87;;;25.60;99.90;;;;;;5014470;28;20567;-58
2023/09/12 02:42:25;;;;;;;5.87;5.37;;;25.60;99.90;;;;;;5013024;28;20470;-52
2023/09/12 02:44:52;;;;;;;6.73;6.20;;;25.60;99.90;;;;;;5011417;28;20982;-50
2023/09/12 02:47:19;;;;;;;5.43;4.97;;;25.60;99.90;;;;;;5012984;28;20505;-53
2023/09/12 02:49:45;;;;;;;7.13;5.53;;;25.60;99.90;;;;;;5013490;28;20478;-49
2023/09/12 02:52:12;;;;;;;6.63;6.10;;;25.60;99.90;;;;;;5006818;28;20458;-57
2023/09/12 02:54:40;;;;;;;6.90;6.20;;;25.60;99.90;;;;;;5014854;28;20462;-53
2023/09/12 02:57:07;;;;;;;6.40;5.90;;;25.60;99.90;;;;;;5006676;28;21111;-57
2023/09/12 02:59:33;;;;;;;6.73;6.23;;;25.60;99.90;;;;;;5011520;28;20487;-53
2023/09/12 03:02:00;;;;;;;6.17;5.63;;;25.60;99.90;;;;;;5008104;28;20469;-56
2023/09/12 03:04:28;;;;;;;6.20;5.73;;;25.60;99.90;;;;;;5013797;28;20470;-58
2023/09/12 03:06:54;;;;;;;7.00;6.30;;;25.60;99.90;;;;;;5004385;28;20459;-47
2023/09/12 03:09:22;;;;;;;6.13;5.63;;;25.60;99.90;;;;;;5010677;28;20497;-48
2023/09/12 03:11:50;;;;;;;7.03;6.33;;;25.60;99.90;;;;;;5009503;28;20462;-55
2023/09/12 03:14:17;;;;;;;6.37;5.87;;;25.60;99.90;;;;;;5010017;28;20459;-53
2023/09/12 03:16:44;;;;;;;6.63;6.00;;;25.60;99.90;;;;;;5010522;28;20466;-53
2023/09/12 03:19:10;;;;;;;6.80;6.20;;;25.60;99.90;;;;;;5011868;28;22031;-50
2023/09/12 03:21:38;;;;;;;6.17;5.67;;;25.60;99.90;;;;;;5009605;28;20485;-54
2023/09/12 03:24:05;;;;;;;6.83;6.30;;;25.60;99.90;;;;;;5011875;28;20446;-61
2023/09/12 03:26:35;;;;;;;5.53;5.13;;;25.50;99.90;;;;;;5011334;28;20473;-55
2023/09/12 03:29:03;;;;;;;7.10;6.40;;;25.50;99.90;;;;;;5008904;28;20470;-51
2023/09/12 03:31:30;;;;;;;8.73;7.03;;;25.60;99.90;;;;;;5015688;28;20462;-59
2023/09/12 03:33:57;;;;;;;6.33;5.83;;;25.60;99.90;;;;;;5011521;28;20466;-56
2023/09/12 03:36:24;;;;;;;6.30;5.70;;;25.50;99.90;;;;;;5009630;28;20470;-60
2023/09/12 03:38:50;;;;;;;7.93;6.40;;;25.60;99.90;;;;;;5014516;28;20914;-49
2023/09/12 03:41:17;;;;;;;5.73;5.23;;;25.50;99.90;;;;;;5018931;28;20462;-58
2023/09/12 03:43:44;;;;;;;6.23;5.63;;;25.50;99.90;;;;;;5018080;28;20466;-48
2023/09/12 03:46:12;;;;;;;5.90;5.40;;;25.50;99.90;;;;;;5013112;28;20842;-49
2023/09/12 03:48:39;;;;;;;5.57;5.17;;;25.50;99.90;;;;;;5016696;28;20494;-48
2023/09/12 03:51:05;;;;;;;6.00;5.40;;;25.50;99.90;;;;;;5009688;28;20473;-53
2023/09/12 03:53:32;;;;;;;6.23;5.73;;;25.50;99.90;;;;;;5007138;28;20473;-47
2023/09/12 03:56:00;;;;;;;6.57;6.07;;;25.50;99.90;;;;;;5014999;28;20506;-52
2023/09/12 03:58:26;;;;;;;5.93;5.40;;;25.50;99.90;;;;;;5015131;28;20465;-50
2023/09/12 04:00:53;;;;;;;7.07;6.37;;;25.50;99.90;;;;;;5011436;28;20454;-55
2023/09/12 04:03:22;;;;;;;6.93;6.23;;;25.50;99.90;;;;;;5014567;28;20485;-52
2023/09/12 04:05:48;;;;;;;6.20;5.70;;;25.50;99.90;;;;;;5009973;28;20951;-50
2023/09/12 04:08:15;;;;;;;6.53;6.03;;;25.60;99.90;;;;;;5008285;28;20459;-49
2023/09/12 04:10:42;;;;;;;7.93;6.77;;;25.50;99.90;;;;;;5019284;28;20458;-48
2023/09/12 04:13:08;;;;;;;5.63;5.03;;;25.50;99.90;;;;;;5016274;28;22867;-59
2023/09/12 04:15:35;;;;;;;7.10;6.40;;;25.50;99.90;;;;;;5016831;28;20477;-52
2023/09/12 04:18:02;;;;;;;6.83;6.27;;;25.50;99.90;;;;;;5015705;28;20454;-59
2023/09/12 04:20:30;;;;;;;7.10;6.40;;;25.50;99.90;;;;;;5012515;28;20478;-57
2023/09/12 04:22:57;;;;;;;8.27;7.47;;;25.50;99.90;;;;;;5019015;28;20458;-53
2023/09/12 04:25:23;;;;;;;7.30;6.70;;;25.60;99.90;;;;;;5017994;28;20463;-60
2023/09/12 04:27:50;;;;;;;6.13;5.63;;;25.50;99.90;;;;;;5018790;28;20458;-54
2023/09/12 04:30:17;;;;;;;7.20;6.50;;;25.50;99.90;;;;;;5017716;28;20485;-54
2023/09/12 04:32:44;;;;;;;7.27;6.50;;;25.50;99.90;;;;;;5009110;28;20451;-55
2023/09/12 04:35:10;;;;;;;7.00;6.30;;;25.50;99.90;;;;;;5004118;28;20463;-52
2023/09/12 04:37:38;;;;;;;7.00;6.30;;;25.50;99.90;;;;;;5006737;28;20463;-51
2023/09/12 04:40:08;;;;;;;7.80;6.97;;;25.50;99.90;;;;;;5005001;28;21041;-47
2023/09/12 04:42:35;;;;;;;7.60;6.90;;;25.50;99.90;;;;;;5007645;28;20462;-48
2023/09/12 04:45:02;;;;;;;6.67;6.07;;;25.50;99.90;;;;;;5007294;28;20469;-56
2023/09/12 04:47:29;;;;;;;7.53;6.93;;;25.50;99.90;;;;;;5012001;28;20454;-46
2023/09/12 04:49:56;;;;;;;6.93;6.30;;;25.50;99.90;;;;;;5015939;28;20458;-51
2023/09/12 04:52:22;;;;;;;7.10;5.93;;;25.50;99.90;;;;;;5016878;28;20465;-51
2023/09/12 04:54:51;;;;;;;6.97;6.33;;;25.50;99.90;;;;;;5011108;28;20456;-55
2023/09/12 04:57:17;;;;;;;7.03;5.77;;;25.50;99.90;;;;;;5013242;28;21025;-47
2023/09/12 04:59:44;;;;;;;7.13;6.53;;;25.50;99.90;;;;;;5016003;28;20474;-52
2023/09/12 05:02:11;;;;;;;7.63;6.77;;;25.50;99.90;;;;;;5016180;28;20477;-52
2023/09/12 05:04:37;;;;;;;6.67;6.07;;;25.50;99.90;;;;;;5011367;28;20462;-61
2023/09/12 05:07:04;;;;;;;7.20;6.40;;;25.50;99.90;;;;;;5008204;28;20506;-51
2023/09/12 05:09:31;;;;;;;6.73;6.10;;;25.50;99.90;;;;;;5012498;28;20868;-50
2023/09/12 05:11:59;;;;;;;6.30;5.70;;;25.50;99.90;;;;;;5014229;28;20470;-58
2023/09/12 05:14:26;;;;;;;6.80;6.13;;;25.50;99.90;;;;;;5013933;28;20463;-55
2023/09/12 05:16:53;;;;;;;6.60;6.00;;;25.50;99.90;;;;;;5012624;28;20474;-49
2023/09/12 05:19:19;;;;;;;5.90;5.40;;;25.50;99.90;;;;;;5010760;28;20515;-52
2023/09/12 05:21:46;;;;;;;8.60;5.87;;;25.50;99.90;;;;;;5004846;28;20463;-50
2023/09/12 05:24:13;;;;;;;7.33;6.20;;;25.50;99.90;;;;;;5009579;28;20475;-49
2023/09/12 05:26:40;;;;;;;6.73;6.13;;;25.50;99.90;;;;;;5009170;28;20977;-48
2023/09/12 05:29:08;;;;;;;5.90;5.40;;;25.40;99.90;;;;;;5007124;28;20569;-52
2023/09/12 05:31:34;;;;;;;7.23;6.60;;;25.40;99.90;;;;;;5010664;28;20470;-49
2023/09/12 05:34:01;;;;;;;6.17;5.67;;;25.50;99.90;;;;;;5008822;28;20458;-53
2023/09/12 05:36:28;;;;;;;6.90;6.20;;;25.40;99.90;;;;;;5008034;28;20466;-52
2023/09/12 05:38:55;;;;;;;7.57;6.73;;;25.40;99.90;;;;;;5010126;28;20466;-58
2023/09/12 05:41:21;;;;;;;6.80;6.10;;;25.40;99.90;;;;;;5008834;28;20459;-49
2023/09/12 05:43:48;;;;;;;6.10;5.70;;;25.40;99.90;;;;;;5010556;28;20523;-56
2023/09/12 05:46:16;;;;;;;8.23;5.83;;;25.40;99.90;;;;;;5012246;28;20462;-50
2023/09/12 05:48:43;;;;;;;6.83;6.23;;;25.50;99.90;;;;;;5012344;28;20890;-52
2023/09/12 05:51:09;;;;;;;6.90;6.30;;;25.40;99.90;;;;;;5008494;28;20974;-53
2023/09/12 05:53:36;;;;;;;6.90;6.20;;;25.40;99.90;;;;;;5010105;28;20550;-55
2023/09/12 05:56:03;;;;;;;6.27;5.67;;;25.40;99.90;;;;;;5007992;28;20467;-53
2023/09/12 05:58:30;;;;;;;7.80;7.10;;;25.40;99.90;;;;;;5009428;28;20454;-56
2023/09/12 06:00:56;;;;;;;8.57;6.57;;;25.40;99.90;;;;;;5010978;28;20522;-55
2023/09/12 06:03:24;;;;;;;9.13;8.13;;;25.40;99.90;;;;;;5012497;28;20835;-60
2023/09/12 06:05:51;;;;;;;9.17;7.23;;;25.40;99.90;;;;;;5011481;28;20454;-50
2023/09/12 06:08:18;;;;;;;13.67;8.40;;;25.40;99.90;;;;;;5004991;28;20459;-58
2023/09/12 06:10:45;;;;;;;9.63;7.83;;;25.40;99.90;;;;;;5013196;28;20630;-62
2023/09/12 06:13:12;;;;;;;7.60;6.87;;;25.40;99.90;;;;;;5011320;28;20467;-50
2023/09/12 06:15:40;;;;;;;8.77;7.17;;;25.40;99.90;;;;;;5010996;28;20520;-57
2023/09/12 06:18:07;;;;;;;9.13;8.33;;;25.40;99.90;;;;;;5012925;28;20458;-50
2023/09/12 06:20:35;;;;;;;7.83;7.10;;;25.40;99.90;;;;;;5006233;28;20481;-50
2023/09/12 06:23:03;;;;;;;7.60;6.90;;;25.40;99.90;;;;;;5015541;28;20835;-49
2023/09/12 06:25:30;;;;;;;8.80;7.30;;;25.40;99.90;;;;;;5015529;28;20458;-51
2023/09/12 06:27:56;;;;;;;6.80;6.20;;;25.40;99.90;;;;;;5011476;28;21084;-47
2023/09/12 06:30:23;;;;;;;8.50;7.80;;;25.40;99.90;;;;;;5011988;28;20469;-51
2023/09/12 06:32:50;;;;;;;9.10;8.30;;;25.30;99.90;;;;;;5013535;28;20443;-48
2023/09/12 06:35:16;;;;;;;9.57;8.40;;;25.30;99.90;;;;;;5004720;28;20469;-52
2023/09/12 06:37:46;;;;;;;7.63;7.10;;;25.40;99.90;;;;;;5004460;28;20466;-60
2023/09/12 06:40:13;;;;;;;10.47;9.37;;;25.30;99.90;;;;;;5004118;28;20507;-59
2023/09/12 06:42:40;;;;;;;7.77;7.13;;;25.30;99.90;;;;;;5009633;28;20462;-55
2023/09/12 06:45:08;;;;;;;8.43;7.67;;;25.30;99.90;;;;;;5011134;28;20477;-54
2023/09/12 06:47:34;;;;;;;8.43;7.70;;;25.30;99.90;;;;;;5013592;28;20461;-58
2023/09/12 06:50:02;;;;;;;8.73;7.90;;;25.30;99.90;;;;;;5014452;28;20471;-51
2023/09/12 06:52:29;;;;;;;9.80;7.73;;;25.30;99.90;;;;;;5014979;28;20473;-55
2023/09/12 06:54:57;;;;;;;9.30;7.90;;;25.30;99.90;;;;;;5016351;28;20477;-58
2023/09/12 06:57:24;;;;;;;9.40;7.60;;;25.30;99.90;;;;;;5014710;28;20937;-57
2023/09/12 06:59:50;;;;;;;9.80;7.70;;;25.30;99.90;;;;;;5007533;28;20474;-54
2023/09/12 07:02:18;;;;;;;9.33;7.80;;;25.30;99.90;;;;;;5008242;28;20466;-55
2023/09/12 07:04:45;;;;;;;7.63;6.97;;;25.30;99.90;;;;;;5016883;28;20973;-58
2023/09/12 07:07:11;;;;;;;8.17;7.37;;;25.30;99.90;;;;;;5015195;28;20461;-55
2023/09/12 07:09:39;;;;;;;10.87;9.07;;;25.30;99.90;;;;;;5016932;28;20480;-54
2023/09/12 07:12:08;;;;;;;9.77;8.50;;;25.30;99.90;;;;;;5018062;28;20469;-55
2023/09/12 07:14:34;;;;;;;12.33;9.27;;;25.30;99.90;;;;;;5017925;28;20455;-53
2023/09/12 07:17:01;;;;;;;10.17;9.10;;;25.30;99.90;;;;;;5011997;28;23270;-62
2023/09/12 07:19:28;;;;;;;9.97;8.93;;;25.20;99.90;;;;;;5016301;28;20458;-57
2023/09/12 07:21:56;;;;;;;10.03;9.10;;;25.20;99.90;;;;;;5018596;28;20458;-55
2023/09/12 07:24:26;;;;;;;12.97;11.27;;;25.10;99.90;;;;;;5015573;28;20996;-56
2023/09/12 07:26:53;;;;;;;13.93;11.03;;;25.10;99.90;;;;;;5011534;28;20823;-52
2023/09/12 07:29:21;;;;;;;14.27;11.50;;;25.10;99.90;;;;;;5018500;28;20465;-55
2023/09/12 07:31:47;;;;;;;13.60;11.70;;;25.10;99.90;;;;;;5016962;28;20458;-55
2023/09/12 07:34:14;;;;;;;12.40;10.60;;;25.10;99.90;;;;;;5015327;28;20462;-52
2023/09/12 07:36:41;;;;;;;14.13;12.73;;;25.10;99.90;;;;;;5009105;28;20465;-51
2023/09/12 07:39:08;;;;;;;10.57;9.07;;;25.00;99.90;;;;;;5010697;28;20460;-54
2023/09/12 07:41:34;;;;;;;15.50;9.80;;;25.00;99.90;;;;;;5017665;28;20477;-57
2023/09/12 07:44:04;;;;;;;10.13;9.27;;;25.00;99.90;;;;;;5014558;28;20673;-55
2023/09/12 07:46:32;;;;;;;13.60;12.30;;;25.00;99.90;;;;;;5015014;28;20825;-51
2023/09/12 07:48:59;;;;;;;15.40;13.80;;;25.00;99.90;;;;;;5017758;28;20453;-54
2023/09/12 07:51:26;;;;;;;16.17;12.60;;;25.00;99.90;;;;;;5012610;28;20528;-52
2023/09/12 07:53:52;;;;;;;14.13;12.80;;;25.00;99.90;;;;;;5013512;28;23829;-50
2023/09/12 07:56:19;;;;;;;14.03;12.53;;;24.90;99.90;;;;;;5009931;28;20460;-53
2023/09/12 07:58:46;;;;;;;12.23;10.93;;;24.90;99.90;;;;;;5013199;28;20469;-49
2023/09/12 08:01:12;;;;;;;14.83;11.17;;;24.80;99.90;;;;;;5007849;28;20843;-47
2023/09/12 08:03:43;;;;;;;15.63;11.63;;;24.80;99.90;;;;;;5005962;28;20470;-49
2023/09/12 08:06:10;;;;;;;16.40;11.10;;;24.80;99.90;;;;;;5015327;28;20496;-51
2023/09/12 08:08:36;;;;;;;12.47;10.20;;;24.80;99.90;;;;;;5014377;28;20736;-49
2023/09/12 08:11:03;;;;;;;14.13;10.63;;;24.80;99.90;;;;;;5009148;28;20463;-53
2023/09/12 08:13:31;;;;;;;11.20;8.83;;;24.70;99.90;;;;;;5009109;28;21317;-46
2023/09/12 08:15:58;;;;;;;13.10;8.97;;;24.70;99.90;;;;;;5007122;28;20486;-53
2023/09/12 08:18:28;;;;;;;10.23;9.10;;;24.70;99.90;;;;;;5010702;28;20901;-47
2023/09/12 08:20:56;;;;;;;10.47;8.80;;;24.70;99.90;;;;;;5012144;28;21057;-51
2023/09/12 08:23:23;;;;;;;14.80;8.77;;;24.70;99.90;;;;;;5013037;28;20469;-57
2023/09/12 08:25:50;;;;;;;11.03;8.00;;;24.70;99.90;;;;;;5008974;28;20584;-52
2023/09/12 08:28:16;;;;;;;10.50;8.73;;;24.70;99.90;;;;;;5007336;28;20463;-52
2023/09/12 08:30:45;;;;;;;9.67;7.50;;;24.70;99.90;;;;;;5011642;28;21140;-49
2023/09/12 08:33:11;;;;;;;8.50;7.60;;;24.70;99.90;;;;;;5013926;28;20541;-53
2023/09/12 08:35:38;;;;;;;8.33;7.43;;;24.70;99.90;;;;;;5013845;28;20463;-58
2023/09/12 08:38:08;;;;;;;13.60;8.47;;;24.70;99.90;;;;;;5004668;28;20461;-53
2023/09/12 08:40:36;;;;;;;7.80;6.63;;;24.60;99.90;;;;;;5011258;28;20496;-50
2023/09/12 08:43:04;;;;;;;7.87;6.83;;;24.60;99.90;;;;;;5009672;28;20455;-54
2023/09/12 08:45:31;;;;;;;7.20;6.50;;;24.60;99.90;;;;;;5013480;28;20462;-47
2023/09/12 08:48:00;;;;;;;9.80;6.97;;;24.60;99.90;;;;;;5010725;28;20805;-47
2023/09/12 08:50:30;;;;;;;7.73;6.93;;;24.60;99.90;;;;;;5010672;28;20481;-49
2023/09/12 08:52:58;;;;;;;7.43;5.93;;;24.60;99.90;;;;;;5007453;28;20463;-51
2023/09/12 08:55:26;;;;;;;7.80;6.80;;;24.60;99.90;;;;;;5007765;28;20595;-52
2023/09/12 08:57:56;;;;;;;6.60;6.00;;;24.60;99.90;;;;;;5007162;28;20459;-48
2023/09/12 09:00:24;;;;;;;8.47;6.43;;;24.60;99.90;;;;;;5003536;28;21044;-47
2023/09/12 09:02:51;;;;;;;5.13;4.63;;;24.60;99.90;;;;;;5004406;28;20498;-56
2023/09/12 09:05:21;;;;;;;8.03;4.87;;;24.60;99.90;;;;;;5005226;28;20467;-50
2023/09/12 09:07:49;;;;;;;5.73;4.73;;;24.60;99.90;;;;;;5006566;28;20467;-49
2023/09/12 09:10:18;;;;;;;7.27;5.13;;;24.60;99.90;;;;;;5003702;28;20466;-52
2023/09/12 09:12:47;;;;;;;5.00;4.40;;;24.60;99.90;;;;;;5012826;28;21412;-49
2023/09/12 09:15:25;;;;;;;4.93;4.40;;;24.60;99.90;;;;;;5004247;28;20465;-54
2023/09/12 09:17:53;;;;;;;4.40;4.00;;;24.70;99.90;;;;;;5000536;28;20472;-55
2023/09/12 09:20:24;;;;;;;5.57;4.63;;;24.70;99.90;;;;;;5006251;28;20482;-53
2023/09/12 09:23:00;;;;;;;5.23;4.70;;;24.70;99.90;;;;;;5008177;28;20462;-47
2023/09/12 09:25:27;;;;;;;6.33;3.90;;;24.70;99.90;;;;;;5014545;28;20879;-55
2023/09/12 09:27:55;;;;;;;4.70;4.20;;;24.70;99.90;;;;;;5014537;28;20467;-49
2023/09/12 09:30:42;;;;;;;6.43;5.93;;;24.70;99.90;;;;;;5014601;28;20601;-53
2023/09/12 09:33:09;;;;;;;6.40;5.00;;;24.70;99.90;;;;;;5007136;28;20470;-52
2023/09/12 09:35:36;;;;;;;8.50;6.90;;;24.70;99.90;;;;;;5009593;28;20827;-55
2023/09/12 09:38:05;;;;;;;6.50;5.87;;;24.80;99.90;;;;;;5012143;28;20478;-49
2023/09/12 09:40:33;;;;;;;10.07;7.60;;;24.80;99.90;;;;;;5006447;28;20478;-57
2023/09/12 09:43:01;;;;;;;8.03;7.20;;;24.80;99.90;;;;;;5006956;28;21094;-53
2023/09/12 09:45:29;;;;;;;7.53;6.80;;;24.80;99.90;;;;;;5013888;28;20796;-47
2023/09/12 09:47:59;;;;;;;7.20;6.60;;;24.80;99.90;;;;;;5012755;28;20503;-44
2023/09/12 09:50:26;;;;;;;6.47;5.83;;;24.80;99.90;;;;;;5009134;28;20462;-46
2023/09/12 09:52:58;;;;;;;10.70;7.37;;;24.80;99.90;;;;;;5014084;28;21370;-52
2023/09/12 09:55:25;;;;;;;10.57;9.57;;;24.80;99.90;;;;;;5011435;28;20470;-53
2023/09/12 09:57:53;;;;;;;10.60;9.27;;;24.80;99.90;;;;;;5015387;28;20524;-51
2023/09/12 10:00:24;;;;;;;8.57;7.33;;;24.80;99.90;;;;;;5008147;28;21053;-46
2023/09/12 10:02:52;;;;;;;10.20;9.23;;;24.80;99.90;;;;;;5009816;28;20470;-48
2023/09/12 10:05:19;;;;;;;12.00;8.50;;;24.80;99.90;;;;;;5007803;28;21331;-52
2023/09/12 10:07:50;;;;;;;8.80;8.00;;;24.80;99.90;;;;;;5010901;28;20457;-51
2023/09/12 10:10:18;;;;;;;8.77;7.83;;;24.90;99.90;;;;;;5012927;28;20462;-49
2023/09/12 10:12:50;;;;;;;8.73;7.93;;;24.90;99.90;;;;;;5012564;28;20467;-44
2023/09/12 10:15:22;;;;;;;8.10;7.30;;;24.90;99.90;;;;;;5001450;28;20455;-50
2023/09/12 10:17:56;;;;;;;8.47;7.43;;;24.90;99.90;;;;;;5005860;28;20803;-47
2023/09/12 10:20:27;;;;;;;8.40;7.17;;;24.90;99.90;;;;;;5007924;28;20453;-54
2023/09/12 10:23:07;;;;;;;7.07;6.37;;;25.00;99.90;;;;;;5004345;28;20823;-53
2023/09/12 10:25:35;;;;;;;6.63;6.10;;;25.00;99.90;;;;;;5000758;28;20808;-53
2023/09/12 10:28:02;;;;;;;7.37;6.00;;;25.00;99.90;;;;;;5005713;28;20466;-52
2023/09/12 10:30:32;;;;;;;6.20;4.97;;;25.00;99.90;;;;;;5010741;28;20470;-55
2023/09/12 10:33:00;;;;;;;6.50;5.90;;;25.00;99.90;;;;;;5010454;28;20467;-48
2023/09/12 10:35:28;;;;;;;6.83;6.00;;;25.00;99.90;;;;;;5008236;28;20466;-49
2023/09/12 10:37:56;;;;;;;6.70;5.70;;;25.00;99.90;;;;;;4998643;28;20458;-58
2023/09/12 10:40:24;;;;;;;6.63;5.93;;;25.00;99.90;;;;;;5008081;28;20458;-52
2023/09/12 10:42:52;;;;;;;5.20;4.70;;;25.00;99.90;;;;;;5010728;28;20785;-47
2023/09/12 10:45:19;;;;;;;5.33;4.73;;;25.00;99.90;;;;;;5005855;28;20467;-51
2023/09/12 10:47:47;;;;;;;5.53;5.10;;;25.00;99.90;;;;;;5006592;28;20469;-53
2023/09/12 10:50:15;;;;;;;5.07;4.57;;;25.00;99.90;;;;;;4997532;28;20467;-51
2023/09/12 10:52:42;;;;;;;4.43;4.13;;;25.10;99.90;;;;;;5003429;28;20467;-55
2023/09/12 10:55:16;;;;;;;5.20;4.70;;;25.10;99.90;;;;;;5001670;28;20467;-49
2023/09/12 10:58:04;;;;;;;6.60;3.93;;;25.10;99.90;;;;;;5008779;28;21634;-49
2023/09/12 11:00:32;;;;;;;6.70;4.57;;;25.10;99.90;;;;;;5004967;28;20458;-47
2023/09/12 11:03:21;;;;;;;4.03;3.70;;;25.10;99.90;;;;;;5008973;28;20658;-50
2023/09/12 11:05:54;;;;;;;6.30;4.30;;;25.10;99.90;;;;;;5007486;28;20465;-52
2023/09/12 11:08:21;;;;;;;4.63;4.13;;;25.10;99.90;;;;;;5012263;28;21001;-45
2023/09/12 11:11:19;;;;;;;4.40;4.00;;;25.10;99.90;;;;;;5013580;28;20813;-50
2023/09/12 11:13:46;;;;;;;4.30;3.77;;;25.10;99.90;;;;;;5006703;28;20467;-48
2023/09/12 11:16:14;;;;;;;4.07;3.67;;;25.10;99.90;;;;;;5005023;28;20518;-52
2023/09/12 11:19:19;;;;;;;3.97;3.67;;;25.10;99.90;;;;;;5009131;28;20447;-56
2023/09/12 11:21:47;;;;;;;4.57;4.00;;;25.10;99.90;;;;;;5009191;28;20553;-54
2023/09/12 11:24:16;;;;;;;6.37;4.00;;;25.10;99.90;;;;;;5008387;28;20466;-49
2023/09/12 11:26:54;;;;;;;3.70;3.40;;;25.20;99.90;;;;;;5014348;28;20466;-46
2023/09/12 11:29:22;;;;;;;4.83;3.87;;;25.20;99.90;;;;;;5005924;28;20447;-46
2023/09/12 11:31:57;;;;;;;3.40;3.20;;;25.30;99.90;;;;;;5001750;28;20499;-47
2023/09/12 11:34:27;;;;;;;3.20;2.70;;;25.30;99.90;;;;;;4999133;28;20466;-56
2023/09/12 11:36:57;;;;;;;5.50;3.40;;;25.30;99.90;;;;;;5001880;28;20470;-46
2023/09/12 11:39:25;;;;;;;5.00;3.17;;;25.30;99.90;;;;;;5001252;28;20493;-55
2023/09/12 11:41:53;;;;;;;3.60;3.30;;;25.30;99.90;;;;;;5001306;28;20483;-55
2023/09/12 11:44:20;;;;;;;3.77;3.43;;;25.40;99.90;;;;;;4993884;28;20765;-55
2023/09/12 11:46:50;;;;;;;4.73;4.13;;;25.40;99.90;;;;;;4993487;28;20459;-47
2023/09/12 11:49:18;;;;;;;3.70;3.27;;;25.40;99.90;;;;;;4995877;28;20793;-49
2023/09/12 11:51:49;;;;;;;3.43;3.13;;;25.40;99.90;;;;;;4999225;28;21034;-49
2023/09/12 11:54:18;;;;;;;4.77;4.37;;;25.40;99.90;;;;;;5001689;28;20823;-48
2023/09/12 11:56:47;;;;;;;4.40;3.40;;;25.50;99.90;;;;;;5002858;28;20463;-49
2023/09/12 11:59:14;;;;;;;4.33;4.03;;;25.50;99.90;;;;;;5001163;28;20466;-49
2023/09/12 12:01:42;;;;;;;3.90;3.10;;;25.50;99.90;;;;;;5002530;28;20570;-54
2023/09/12 12:04:10;;;;;;;3.87;3.47;;;25.50;99.90;;;;;;5001974;28;20482;-46
2023/09/12 12:06:37;;;;;;;3.50;3.20;;;25.50;99.90;;;;;;5000332;28;21274;-52
2023/09/12 12:09:05;;;;;;;4.90;3.80;;;25.50;99.90;;;;;;5004880;28;20832;-47
2023/09/12 12:11:32;;;;;;;4.27;3.37;;;25.60;99.90;;;;;;5006760;28;20463;-54
2023/09/12 12:14:09;;;;;;;4.67;4.10;;;25.60;99.90;;;;;;5008630;28;20699;-51
2023/09/12 12:16:36;;;;;;;4.37;3.93;;;25.60;99.90;;;;;;5013342;28;20454;-48
2023/09/12 12:19:03;;;;;;;4.10;3.70;;;25.60;99.90;;;;;;5006731;28;20454;-52
2023/09/12 12:21:31;;;;;;;3.63;3.33;;;25.60;99.90;;;;;;5004533;28;20503;-51
2023/09/12 12:24:02;;;;;;;4.60;3.77;;;25.60;99.90;;;;;;5012183;28;21055;-49
2023/09/12 12:26:31;;;;;;;3.77;3.47;;;25.60;99.90;;;;;;5011188;28;20462;-54
2023/09/12 12:28:59;;;;;;;3.27;3.00;;;25.70;99.90;;;;;;5010766;28;20469;-44
2023/09/12 12:31:27;;;;;;;3.77;3.03;;;25.70;99.90;;;;;;5011916;28;20489;-50
2023/09/12 12:33:54;;;;;;;4.50;3.10;;;25.70;99.90;;;;;;5005011;28;20588;-48
2023/09/12 12:36:21;;;;;;;4.27;3.10;;;25.70;99.90;;;;;;5002037;28;21321;-56
2023/09/12 12:38:49;;;;;;;4.43;3.53;;;25.70;99.90;;;;;;5006938;28;20462;-55
2023/09/12 12:41:17;;;;;;;3.13;2.93;;;25.70;99.90;;;;;;5010726;28;21762;-47
2023/09/12 12:43:45;;;;;;;3.10;2.90;;;25.80;99.90;;;;;;5012139;28;20466;-45
2023/09/12 12:46:13;;;;;;;4.40;3.33;;;25.70;99.90;;;;;;5007506;28;20458;-48
2023/09/12 12:48:44;;;;;;;3.40;3.10;;;25.70;99.90;;;;;;4994206;28;20970;-52
2023/09/12 12:51:17;;;;;;;3.50;3.20;;;25.70;99.90;;;;;;4994669;28;20467;-44